createdAt,value
2022-11-12T04:02:01.408Z,9.40
2022-11-12T04:05:05.048Z,3.20
2022-11-12T04:08:34.886Z,2.80
2022-11-12T04:11:21.050Z,3.53
2022-11-12T04:14:06.432Z,3.40
2022-11-12T04:17:10.718Z,3.20
2022-11-12T04:20:16.130Z,3.00
2022-11-12T04:23:01.832Z,3.00
2022-11-12T04:26:06.044Z,2.87
2022-11-12T04:29:10.158Z,3.17
2022-11-12T04:31:55.602Z,2.60
2022-11-12T04:34:41.343Z,3.03
2022-11-12T04:37:30.199Z,2.77
2022-11-12T04:40:36.186Z,3.07
2022-11-12T04:43:40.259Z,3.10
2022-11-12T04:46:25.797Z,3.13
2022-11-12T04:49:11.360Z,3.10
2022-11-12T04:52:05.978Z,2.87
2022-11-12T04:54:53.084Z,2.70
2022-11-12T04:57:38.469Z,3.20
2022-11-12T05:00:24.508Z,3.20
2022-11-12T05:03:10.417Z,3.10
2022-11-12T05:06:01.088Z,3.20
2022-11-12T05:08:46.762Z,3.00
2022-11-12T05:11:33.881Z,3.17
2022-11-12T05:14:19.392Z,3.17
2022-11-12T05:17:05.234Z,3.00
2022-11-12T05:19:50.802Z,2.97
2022-11-12T05:22:45.506Z,3.27
2022-11-12T05:25:36.241Z,2.80
2022-11-12T05:28:23.352Z,3.23
2022-11-12T05:31:09.109Z,3.13
2022-11-12T05:33:54.616Z,3.07
2022-11-12T05:36:40.625Z,2.97
2022-11-12T05:39:25.980Z,3.00
2022-11-12T05:42:13.407Z,2.87
2022-11-12T05:45:01.067Z,3.20
2022-11-12T05:47:47.582Z,3.10
2022-11-12T05:50:39.822Z,3.00
2022-11-12T05:53:30.752Z,3.00
2022-11-12T05:56:16.295Z,3.50
2022-11-12T05:59:02.337Z,4.33
2022-11-12T06:01:49.255Z,5.00
2022-11-12T06:04:34.785Z,4.77
2022-11-12T06:07:20.567Z,5.07
2022-11-12T06:10:07.329Z,5.30
2022-11-12T06:12:53.320Z,4.40
2022-11-12T06:15:39.545Z,4.63
2022-11-12T06:18:26.775Z,4.77
2022-11-12T06:21:24.899Z,5.00
2022-11-12T06:24:10.486Z,5.03
2022-11-12T06:26:56.153Z,4.50
2022-11-12T06:29:41.662Z,4.30
2022-11-12T06:32:27.415Z,5.70
2022-11-12T06:35:14.236Z,4.33
2022-11-12T06:37:59.382Z,4.10
2022-11-12T06:40:45.144Z,4.63
2022-11-12T06:43:32.744Z,5.10
2022-11-12T06:46:18.166Z,4.60
2022-11-12T06:49:03.952Z,4.90
2022-11-12T06:51:51.883Z,4.73
2022-11-12T06:54:37.341Z,4.47
2022-11-12T06:57:22.872Z,4.40
2022-11-12T07:00:11.674Z,4.53
2022-11-12T07:02:57.358Z,4.30
2022-11-12T07:05:43.015Z,4.50
2022-11-12T07:08:30.138Z,4.90
2022-11-12T07:11:16.921Z,4.70
2022-11-12T07:14:04.910Z,4.43
2022-11-12T07:16:50.148Z,4.50
2022-11-12T07:19:35.682Z,4.10
2022-11-12T07:22:21.410Z,4.50
2022-11-12T07:25:09.290Z,4.20
2022-11-12T07:27:55.098Z,4.23
2022-11-12T07:30:40.394Z,4.77
2022-11-12T07:33:27.049Z,4.30
2022-11-12T07:36:15.011Z,4.57
2022-11-12T07:39:00.663Z,4.57
2022-11-12T07:41:47.652Z,4.27
2022-11-12T07:44:33.479Z,4.53
2022-11-12T07:47:18.760Z,4.80
2022-11-12T07:50:05.075Z,4.37
2022-11-12T07:52:50.398Z,3.80
2022-11-12T07:55:36.133Z,3.63
2022-11-12T07:58:23.282Z,3.20
2022-11-12T08:01:09.776Z,3.00
2022-11-12T08:03:55.436Z,3.33
2022-11-12T08:06:40.859Z,3.10
2022-11-12T08:09:26.575Z,3.50
2022-11-12T08:12:12.313Z,3.20
2022-11-12T08:14:59.152Z,3.53
2022-11-12T08:17:44.724Z,3.20
2022-11-12T08:20:30.337Z,2.90
2022-11-12T08:23:16.084Z,3.23
2022-11-12T08:26:04.075Z,2.80
2022-11-12T08:28:49.868Z,3.00
2022-11-12T08:31:36.786Z,2.87
2022-11-12T08:34:22.924Z,3.30
2022-11-12T08:37:08.354Z,2.80
2022-11-12T08:39:53.921Z,3.00
2022-11-12T08:42:39.765Z,2.70
2022-11-12T08:45:26.090Z,2.53
2022-11-12T08:48:14.407Z,2.80
2022-11-12T08:51:02.495Z,2.50
2022-11-12T08:53:48.064Z,3.07
2022-11-12T08:56:34.033Z,2.70
2022-11-12T08:59:19.604Z,2.37
2022-11-12T09:02:06.655Z,2.10
2022-11-12T09:04:53.478Z,2.00
2022-11-12T09:07:54.659Z,2.13
2022-11-12T09:10:40.722Z,2.00
2022-11-12T09:13:26.095Z,2.27
2022-11-12T09:16:11.806Z,1.87
2022-11-12T09:18:57.068Z,2.30
2022-11-12T09:21:43.949Z,2.30
2022-11-12T09:24:29.828Z,2.10
2022-11-12T09:27:15.476Z,2.90
2022-11-12T09:30:01.112Z,2.50
2022-11-12T09:32:46.747Z,2.77
2022-11-12T09:35:32.713Z,2.50
2022-11-12T09:38:20.681Z,2.70
2022-11-12T09:41:19.869Z,2.60
2022-11-12T09:44:10.128Z,3.00
2022-11-12T09:47:02.699Z,2.97
2022-11-12T09:49:51.527Z,3.00
2022-11-12T09:52:39.174Z,2.90
2022-11-12T09:55:31.000Z,2.90
2022-11-12T09:58:18.651Z,2.93
2022-11-12T10:01:14.517Z,2.70
2022-11-12T10:04:14.080Z,3.23
2022-11-12T10:07:06.073Z,2.77
2022-11-12T10:10:01.971Z,2.80
2022-11-12T10:13:05.142Z,2.90
2022-11-12T10:16:24.765Z,2.60
2022-11-12T10:19:53.017Z,2.70
2022-11-12T10:22:53.445Z,3.97
2022-11-12T10:25:40.152Z,3.30
2022-11-12T10:28:37.316Z,2.83
2022-11-12T10:31:23.963Z,2.80
2022-11-12T10:34:17.451Z,2.40
2022-11-12T10:37:05.838Z,2.43
2022-11-12T10:39:51.995Z,2.40
2022-11-12T10:42:57.451Z,2.47
2022-11-12T10:45:46.023Z,2.33
2022-11-12T10:48:34.202Z,2.80
2022-11-12T10:51:26.881Z,2.33
2022-11-12T10:54:35.157Z,2.63
2022-11-12T10:57:23.476Z,2.73
2022-11-12T11:00:18.123Z,2.43
2022-11-12T11:03:07.589Z,2.30
2022-11-12T11:05:56.595Z,2.60
2022-11-12T11:08:44.582Z,2.70
2022-11-12T11:11:31.576Z,2.80
2022-11-12T11:14:30.142Z,3.03
2022-11-12T11:17:18.252Z,2.70
2022-11-12T11:20:13.178Z,2.83
2022-11-12T11:23:03.686Z,2.80
2022-11-12T11:25:53.402Z,3.30
2022-11-12T11:28:44.064Z,2.93
2022-11-12T11:31:39.842Z,3.60
2022-11-12T11:34:36.693Z,3.60
2022-11-12T11:37:27.049Z,4.30
2022-11-12T11:40:20.639Z,4.17
2022-11-12T11:43:27.264Z,5.00
2022-11-12T11:46:19.148Z,4.57
2022-11-12T11:49:34.124Z,5.13
2022-11-12T11:52:40.926Z,4.60
2022-11-12T11:55:35.554Z,5.03
2022-11-12T11:58:57.671Z,4.83
2022-11-12T12:01:59.665Z,4.63
2022-11-12T12:04:48.347Z,4.23
2022-11-12T12:07:45.803Z,4.03
2022-11-12T12:11:06.924Z,4.57
2022-11-12T12:14:07.390Z,4.60
2022-11-12T12:17:04.235Z,5.07
2022-11-12T12:20:00.072Z,4.17
2022-11-12T12:22:51.978Z,4.10
2022-11-12T12:25:41.387Z,4.10
2022-11-12T12:28:34.434Z,4.17
2022-11-12T12:31:25.723Z,4.23
2022-11-12T12:34:18.658Z,4.30
2022-11-12T12:37:10.413Z,4.57
2022-11-12T12:40:04.474Z,4.03
2022-11-12T12:42:55.167Z,4.40
2022-11-12T12:45:42.408Z,4.33
2022-11-12T12:48:32.606Z,4.63
2022-11-12T12:51:19.038Z,4.80
2022-11-12T12:54:04.591Z,4.80
2022-11-12T12:56:51.541Z,4.87
2022-11-12T12:59:37.178Z,5.07
2022-11-12T13:02:24.829Z,4.27
2022-11-12T13:05:24.927Z,4.77
2022-11-12T13:08:13.175Z,5.00
2022-11-12T13:10:59.630Z,5.10
2022-11-12T13:13:46.499Z,5.03
2022-11-12T13:16:57.751Z,5.00
2022-11-12T13:19:46.984Z,5.23
2022-11-12T13:22:50.315Z,5.13
2022-11-12T13:25:36.564Z,5.70
2022-11-12T13:28:21.835Z,5.77
2022-11-12T13:31:27.646Z,5.40
2022-11-12T13:34:26.649Z,5.60
2022-11-12T13:37:19.993Z,5.83
2022-11-12T13:40:12.012Z,5.87
2022-11-12T13:43:04.604Z,5.67
2022-11-12T13:45:55.124Z,5.47
2022-11-12T13:48:45.391Z,4.73
2022-11-12T13:51:39.147Z,5.00
2022-11-12T13:54:27.626Z,5.60
2022-11-12T13:57:29.163Z,5.90
2022-11-12T14:00:25.270Z,5.67
2022-11-12T14:03:17.933Z,6.27
2022-11-12T14:06:12.768Z,5.93
2022-11-12T14:09:16.968Z,6.00
2022-11-12T14:12:18.071Z,5.47
2022-11-12T14:15:28.401Z,5.67
2022-11-12T14:18:23.479Z,6.10
2022-11-12T14:21:15.621Z,5.97
2022-11-12T14:24:02.806Z,5.70
2022-11-12T14:26:48.214Z,6.27
2022-11-12T14:29:36.835Z,10.40
2022-11-12T14:32:23.769Z,6.43
2022-11-12T14:35:37.261Z,5.67
2022-11-12T14:38:29.556Z,5.97
2022-11-12T14:41:20.484Z,5.70
2022-11-12T14:44:13.953Z,6.00
2022-11-12T14:47:00.328Z,6.03
2022-11-12T14:49:48.497Z,6.37
2022-11-12T14:52:37.040Z,5.60
2022-11-12T14:55:26.742Z,6.07
2022-11-12T14:58:15.014Z,5.80
2022-11-12T15:01:44.956Z,5.37
2022-11-12T15:04:26.922Z,6.07
2022-11-12T15:07:24.253Z,6.10
2022-11-12T15:10:30.193Z,6.00
2022-11-12T15:13:17.763Z,5.97
2022-11-12T15:16:07.562Z,5.90
2022-11-12T15:19:20.830Z,5.73
2022-11-12T15:22:06.530Z,5.83
2022-11-12T15:24:52.037Z,7.00
2022-11-12T15:27:40.768Z,6.07
2022-11-12T15:30:28.665Z,6.07
2022-11-12T15:33:18.999Z,5.70
2022-11-12T15:36:05.024Z,5.67
2022-11-12T15:38:52.971Z,6.43
2022-11-12T15:41:39.689Z,5.83
2022-11-12T15:44:30.326Z,6.67
2022-11-12T15:47:22.632Z,6.00
2022-11-12T15:50:16.339Z,6.10
2022-11-12T15:53:01.979Z,7.73
2022-11-12T15:55:47.818Z,7.57
2022-11-12T15:58:35.207Z,7.77
2022-11-12T16:01:22.124Z,7.03
2022-11-12T16:04:08.225Z,8.50
2022-11-12T16:06:53.580Z,7.40
2022-11-12T16:09:39.778Z,7.00
2022-11-12T16:12:25.408Z,6.93
2022-11-12T16:15:14.221Z,6.90
2022-11-12T16:18:01.202Z,6.90
2022-11-12T16:20:47.202Z,6.57
2022-11-12T16:23:32.826Z,7.07
2022-11-12T16:26:23.617Z,7.43
2022-11-12T16:29:12.103Z,7.60
2022-11-12T16:31:57.438Z,7.40
2022-11-12T16:34:44.490Z,8.10
2022-11-12T16:37:30.571Z,8.17
2022-11-12T16:40:17.378Z,9.23
2022-11-12T16:43:02.747Z,10.30
2022-11-12T16:45:48.274Z,9.90
2022-11-12T16:48:33.956Z,10.27
2022-11-12T16:51:22.373Z,11.50
2022-11-12T16:54:08.160Z,13.37
2022-11-12T16:56:53.843Z,11.80
2022-11-12T16:59:39.567Z,12.53
2022-11-12T17:02:24.978Z,14.43
2022-11-12T17:05:15.267Z,14.43
2022-11-12T17:08:01.920Z,13.50
2022-11-12T17:10:47.553Z,14.70
2022-11-12T17:13:32.883Z,14.07
2022-11-12T17:16:18.687Z,13.63
2022-11-12T17:19:04.062Z,14.13
2022-11-12T17:21:49.769Z,13.27
2022-11-12T17:24:36.623Z,11.87
2022-11-12T17:27:22.341Z,11.67
2022-11-12T17:30:08.904Z,10.77
2022-11-12T17:32:54.592Z,11.90
2022-11-12T17:35:40.085Z,11.47
2022-11-12T17:38:25.655Z,10.77
2022-11-12T17:41:12.913Z,10.97
2022-11-12T17:43:59.648Z,10.30
2022-11-12T17:46:45.966Z,9.13
2022-11-12T17:49:31.384Z,9.10
2022-11-12T17:52:16.912Z,8.90
2022-11-12T17:55:02.318Z,10.73
2022-11-12T17:57:50.266Z,9.63
2022-11-12T18:00:37.803Z,10.57
2022-11-12T18:03:23.215Z,10.30
2022-11-12T18:06:12.580Z,9.63
2022-11-12T18:09:00.150Z,9.80
2022-11-12T18:11:48.361Z,9.17
2022-11-12T18:14:35.226Z,10.83
2022-11-12T18:17:20.863Z,10.67
2022-11-12T18:20:07.927Z,11.10
2022-11-12T18:22:53.284Z,10.73
2022-11-12T18:25:39.212Z,10.57
2022-11-12T18:28:24.476Z,10.60
2022-11-12T18:31:13.116Z,11.43
2022-11-12T18:33:58.470Z,11.17
2022-11-12T18:36:43.964Z,11.40
2022-11-12T18:39:29.338Z,10.77
2022-11-12T18:42:15.116Z,12.30
2022-11-12T18:45:00.680Z,10.60
2022-11-12T18:47:47.636Z,10.90
2022-11-12T18:50:33.195Z,10.90
2022-11-12T18:53:18.919Z,10.30
2022-11-12T18:56:07.143Z,9.80
2022-11-12T18:58:52.681Z,10.17
2022-11-12T19:01:38.194Z,10.40
2022-11-12T19:04:25.422Z,9.53
2022-11-12T19:07:11.168Z,10.90
2022-11-12T19:09:56.504Z,11.27
2022-11-12T19:12:42.541Z,9.73
2022-11-12T19:15:28.163Z,10.23
2022-11-12T19:18:14.082Z,10.50
2022-11-12T19:21:06.160Z,10.30
2022-11-12T19:23:54.514Z,10.53
2022-11-12T19:26:40.247Z,11.17
2022-11-12T19:29:25.606Z,12.67
2022-11-12T19:32:11.583Z,12.17
2022-11-12T19:34:57.176Z,14.17
2022-11-12T19:37:43.941Z,16.53
2022-11-12T19:40:29.457Z,15.50
2022-11-12T19:43:15.114Z,15.97
2022-11-12T19:46:00.713Z,17.10
2022-11-12T19:48:46.314Z,15.93
2022-11-12T19:51:32.158Z,13.93
2022-11-12T19:54:18.939Z,14.53
2022-11-12T19:57:04.550Z,15.07
2022-11-12T19:59:50.228Z,14.87
2022-11-12T20:02:35.821Z,14.43
2022-11-12T20:05:21.419Z,12.97
2022-11-12T20:08:06.921Z,14.73
2022-11-12T20:10:53.922Z,13.10
2022-11-12T20:13:40.056Z,15.03
2022-11-12T20:16:25.956Z,19.27
2022-11-12T20:19:11.743Z,20.70
2022-11-12T20:21:57.007Z,18.97
2022-11-12T20:24:42.777Z,16.27
2022-11-12T20:27:29.582Z,14.80
2022-11-12T20:30:15.401Z,13.33
2022-11-12T20:33:00.960Z,12.73
2022-11-12T20:35:46.253Z,12.73
2022-11-12T20:38:31.837Z,12.23
2022-11-12T20:41:19.079Z,11.73
2022-11-12T20:44:06.120Z,12.37
2022-11-12T20:46:51.670Z,13.70
2022-11-12T20:49:37.186Z,14.33
2022-11-12T20:52:22.650Z,24.53
2022-11-12T20:55:09.026Z,25.70
2022-11-12T20:57:55.023Z,22.77
2022-11-12T21:00:41.816Z,20.37
2022-11-12T21:03:27.450Z,18.93
2022-11-12T21:06:15.123Z,16.30
2022-11-12T21:09:00.709Z,16.07
2022-11-12T21:11:46.321Z,16.00
2022-11-12T21:14:31.913Z,15.13
2022-11-12T21:17:19.777Z,16.03
2022-11-12T21:20:06.457Z,18.93
2022-11-12T21:22:52.070Z,18.77
2022-11-12T21:25:38.923Z,20.13
2022-11-12T21:28:24.827Z,22.37
2022-11-12T21:31:12.314Z,24.07
2022-11-12T21:34:00.961Z,24.43
2022-11-12T21:36:46.596Z,23.33
2022-11-12T21:39:32.245Z,18.73
2022-11-12T21:42:17.866Z,16.17
2022-11-12T21:45:04.382Z,14.53
2022-11-12T21:47:49.949Z,15.30
2022-11-12T21:50:36.977Z,12.87
2022-11-12T21:53:22.917Z,12.17
2022-11-12T21:56:11.129Z,11.97
2022-11-12T21:59:01.176Z,11.13
2022-11-12T22:01:46.752Z,10.80
2022-11-12T22:04:32.379Z,10.63
2022-11-12T22:07:19.239Z,10.00
2022-11-12T22:10:05.772Z,9.40
2022-11-12T22:13:19.787Z,9.90
2022-11-12T22:15:57.723Z,9.30
2022-11-12T22:18:45.155Z,9.30
2022-11-12T22:21:35.572Z,8.63
2022-11-12T22:24:25.136Z,9.87
2022-11-12T22:27:10.498Z,9.50
2022-11-12T22:29:56.040Z,9.40
2022-11-12T22:32:41.870Z,9.70
2022-11-12T22:35:27.243Z,9.83
2022-11-12T22:38:12.910Z,9.97
2022-11-12T22:41:03.411Z,11.10
2022-11-12T22:43:49.938Z,12.57
2022-11-12T22:46:36.441Z,11.17
2022-11-12T22:49:21.860Z,10.83
2022-11-12T22:52:07.476Z,10.33
2022-11-12T22:54:53.124Z,9.70
2022-11-12T22:57:40.056Z,9.93
2022-11-12T23:00:32.095Z,9.97
2022-11-12T23:03:17.706Z,10.40
2022-11-12T23:06:05.607Z,10.27
2022-11-12T23:08:52.810Z,11.17
2022-11-12T23:11:38.354Z,10.53
2022-11-12T23:14:25.299Z,10.13
2022-11-12T23:17:10.900Z,10.67
2022-11-12T23:19:56.365Z,11.53
2022-11-12T23:22:41.900Z,10.50
2022-11-12T23:25:27.396Z,11.50
2022-11-12T23:28:12.954Z,10.87
2022-11-12T23:30:59.888Z,11.43
2022-11-12T23:33:45.683Z,10.97
2022-11-12T23:36:32.230Z,10.73
2022-11-12T23:39:17.809Z,11.27
2022-11-12T23:42:03.481Z,10.20
2022-11-12T23:44:48.868Z,11.20
2022-11-12T23:47:35.980Z,10.80
2022-11-12T23:50:21.935Z,10.43
2022-11-12T23:53:07.493Z,9.50
2022-11-12T23:55:53.273Z,8.60
2022-11-12T23:58:39.986Z,8.53
